Time;durP1;ratioP1;P1;durP2;ratioP2;P2;SDS_P1;SDS_P2;PMS_P1;PMS_P2;Temp;Humidity;BMP_temperature;BMP_pressure;BME280_temperature;BME280_humidity;BME280_pressure;Samples;Min_cycle;Max_cycle;Signal;HPM_P1;HPM_P2
2022/07/27 00:00:47;;;;;;;;;3.50;2.50;;;;;;;;5076789;28;45409;-66
2022/07/27 00:03:12;;;;;;;;;2.00;2.00;;;;;;;;5077640;28;45656;-66
2022/07/27 00:05:38;;;;;;;;;2.00;2.00;;;;;;;;5077387;28;45638;-66
2022/07/27 00:08:03;;;;;;;;;2.00;2.00;;;;;;;;5075894;28;45885;-65
2022/07/27 00:10:29;;;;;;;;;5.25;3.25;;;;;;;;5077559;28;45440;-65
2022/07/27 00:12:54;;;;;;;;;2.00;1.75;;;;;;;;5077843;28;45627;-65
2022/07/27 00:15:19;;;;;;;;;2.00;2.00;;;;;;;;5077744;28;45445;-65
2022/07/27 00:17:44;;;;;;;;;3.50;3.50;;;;;;;;5077364;28;47407;-66
2022/07/27 00:20:10;;;;;;;;;0.00;0.00;;;;;;;;5077991;28;45385;-64
2022/07/27 00:22:35;;;;;;;;;2.25;2.00;;;;;;;;5095881;27;45703;-66
2022/07/27 00:25:00;;;;;;;;;1.00;1.00;;;;;;;;5098419;27;45751;-65
2022/07/27 00:27:25;;;;;;;;;2.75;2.00;;;;;;;;5079229;27;46854;-65
2022/07/27 00:29:50;;;;;;;;;1.75;1.75;;;;;;;;5077492;28;45430;-65
2022/07/27 00:32:16;;;;;;;;;1.25;1.00;;;;;;;;5077162;28;45825;-66
2022/07/27 00:34:41;;;;;;;;;2.25;2.25;;;;;;;;5074659;28;45468;-65
2022/07/27 00:37:06;;;;;;;;;3.50;3.50;;;;;;;;5077076;28;45822;-66
2022/07/27 00:39:31;;;;;;;;;3.50;2.00;;;;;;;;5077152;28;45467;-66
2022/07/27 00:41:57;;;;;;;;;5.00;2.00;;;;;;;;5077603;28;45359;-66
2022/07/27 00:44:25;;;;;;;;;2.00;2.00;;;;;;;;5075821;28;45419;-66
2022/07/27 00:46:51;;;;;;;;;1.50;1.50;;;;;;;;5057947;28;49014;-66
2022/07/27 00:49:16;;;;;;;;;2.00;2.00;;;;;;;;5077167;28;45539;-66
2022/07/27 00:51:42;;;;;;;;;4.00;3.00;;;;;;;;5076647;28;45338;-65
2022/07/27 00:54:07;;;;;;;;;4.00;4.00;;;;;;;;5059022;28;45396;-66
2022/07/27 00:56:33;;;;;;;;;2.75;2.75;;;;;;;;5076360;28;45943;-66
2022/07/27 00:58:58;;;;;;;;;2.00;2.00;;;;;;;;5076236;28;45427;-66
2022/07/27 01:01:23;;;;;;;;;3.00;2.75;;;;;;;;5076393;28;45717;-67
2022/07/27 01:03:48;;;;;;;;;4.00;3.50;;;;;;;;5066642;28;45575;-66
2022/07/27 01:06:14;;;;;;;;;2.00;2.00;;;;;;;;5076644;28;45482;-66
2022/07/27 01:08:41;;;;;;;;;3.00;3.00;;;;;;;;5076553;28;45279;-67
2022/07/27 01:11:06;;;;;;;;;1.75;1.50;;;;;;;;5076821;28;45424;-67
2022/07/27 01:13:32;;;;;;;;;2.50;1.75;;;;;;;;5076966;28;45341;-66
2022/07/27 01:15:57;;;;;;;;;3.00;3.00;;;;;;;;5076456;28;45645;-66
2022/07/27 01:18:31;;;;;;;;;3.25;3.00;;;;;;;;5076195;28;45516;-66
2022/07/27 01:20:57;;;;;;;;;2.50;2.00;;;;;;;;5076584;28;45500;-66
2022/07/27 01:23:22;;;;;;;;;3.75;3.75;;;;;;;;5075866;28;45382;-67
2022/07/27 01:25:48;;;;;;;;;3.50;2.50;;;;;;;;5076277;27;45671;-67
2022/07/27 01:28:13;;;;;;;;;3.75;3.75;;;;;;;;5076540;28;45354;-66
2022/07/27 01:30:38;;;;;;;;;2.50;2.00;;;;;;;;5076550;28;45373;-66
2022/07/27 01:33:04;;;;;;;;;3.25;3.25;;;;;;;;5076580;28;45404;-66
2022/07/27 01:35:30;;;;;;;;;3.50;2.75;;;;;;;;5076240;28;45990;-66
2022/07/27 01:37:55;;;;;;;;;3.00;3.00;;;;;;;;5095407;27;45438;-65
2022/07/27 01:40:21;;;;;;;;;1.75;1.75;;;;;;;;5096979;27;45479;-65
2022/07/27 01:42:46;;;;;;;;;3.00;3.00;;;;;;;;5096875;27;45393;-65
2022/07/27 01:45:11;;;;;;;;;2.00;2.00;;;;;;;;5078421;27;46352;-65
2022/07/27 01:47:36;;;;;;;;;3.75;3.75;;;;;;;;5096686;27;45337;-66
2022/07/27 01:50:02;;;;;;;;;2.00;2.00;;;;;;;;5096911;27;45350;-65
2022/07/27 01:52:27;;;;;;;;;3.75;3.75;;;;;;;;5096465;27;45562;-65
2022/07/27 01:54:52;;;;;;;;;4.25;2.25;;;;;;;;5094917;27;46449;-65
2022/07/27 01:57:18;;;;;;;;;3.50;2.75;;;;;;;;5096600;27;45358;-66
2022/07/27 01:59:43;;;;;;;;;1.25;1.25;;;;;;;;5096652;27;45392;-65
2022/07/27 02:02:08;;;;;;;;;3.25;3.25;;;;;;;;5078264;27;45438;-65
2022/07/27 02:04:33;;;;;;;;;2.50;2.00;;;;;;;;5096259;27;46523;-66
2022/07/27 02:06:58;;;;;;;;;2.25;2.25;;;;;;;;5096278;27;45279;-66
2022/07/27 02:09:24;;;;;;;;;2.25;2.25;;;;;;;;5096184;27;45396;-66
2022/07/27 02:14:33;;;;;;;;;6.25;3.00;;;;;;;;5096066;27;45425;-64
2022/07/27 02:16:58;;;;;;;;;3.00;2.75;;;;;;;;5096109;27;45255;-66
2022/07/27 02:19:24;;;;;;;;;3.50;2.50;;;;;;;;5094459;27;45349;-65
2022/07/27 02:21:49;;;;;;;;;2.25;2.25;;;;;;;;5094480;27;45510;-65
2022/07/27 02:24:14;;;;;;;;;2.00;2.00;;;;;;;;5095935;27;45453;-66
2022/07/27 02:26:39;;;;;;;;;4.25;3.25;;;;;;;;5084079;27;45634;-65
2022/07/27 02:29:04;;;;;;;;;2.75;2.75;;;;;;;;5075609;28;45249;-65
2022/07/27 02:31:30;;;;;;;;;2.00;2.00;;;;;;;;5057535;28;45375;-66
2022/07/27 02:33:55;;;;;;;;;3.25;3.25;;;;;;;;5075458;28;45808;-65
2022/07/27 02:36:20;;;;;;;;;4.00;3.75;;;;;;;;5075487;28;45287;-66
2022/07/27 02:38:45;;;;;;;;;3.25;3.25;;;;;;;;5075640;28;45232;-66
2022/07/27 02:41:10;;;;;;;;;3.00;3.00;;;;;;;;5075540;28;45536;-66
2022/07/27 02:43:36;;;;;;;;;3.75;2.25;;;;;;;;5075295;28;45836;-66
2022/07/27 02:46:01;;;;;;;;;3.00;3.00;;;;;;;;5075506;28;45527;-66
2022/07/27 02:48:26;;;;;;;;;3.00;3.00;;;;;;;;5075513;28;45409;-66
2022/07/27 02:50:51;;;;;;;;;4.00;3.50;;;;;;;;5075416;28;45368;-66
2022/07/27 02:53:17;;;;;;;;;3.00;3.00;;;;;;;;5075265;28;45935;-65
2022/07/27 02:55:42;;;;;;;;;3.00;3.00;;;;;;;;5056911;28;46327;-65
2022/07/27 02:58:07;;;;;;;;;6.00;4.50;;;;;;;;5075151;28;45429;-64
2022/07/27 03:00:33;;;;;;;;;3.50;3.25;;;;;;;;5057109;28;45366;-65
2022/07/27 03:02:58;;;;;;;;;2.75;2.75;;;;;;;;5075030;28;46403;-64
2022/07/27 03:05:23;;;;;;;;;6.00;3.00;;;;;;;;5074996;28;45327;-65
2022/07/27 03:07:48;;;;;;;;;3.25;3.25;;;;;;;;5075331;28;45352;-65
2022/07/27 03:10:14;;;;;;;;;6.00;4.75;;;;;;;;5075236;28;45383;-65
2022/07/27 03:12:39;;;;;;;;;4.25;4.25;;;;;;;;5074717;28;45845;-66
2022/07/27 03:15:04;;;;;;;;;7.25;4.00;;;;;;;;5056487;28;45360;-65
2022/07/27 03:17:30;;;;;;;;;6.00;4.00;;;;;;;;5075152;28;45754;-65
2022/07/27 03:19:55;;;;;;;;;2.50;2.50;;;;;;;;5075067;28;45465;-65
2022/07/27 03:22:20;;;;;;;;;4.75;4.00;;;;;;;;5056385;28;48464;-65
2022/07/27 03:24:45;;;;;;;;;3.25;3.00;;;;;;;;5074886;28;45484;-66
2022/07/27 03:27:12;;;;;;;;;4.00;4.00;;;;;;;;5074898;27;45518;-65
2022/07/27 03:29:37;;;;;;;;;3.25;3.25;;;;;;;;5039826;28;45992;-65
2022/07/27 03:32:02;;;;;;;;;4.25;4.00;;;;;;;;5074054;28;45693;-65
2022/07/27 03:34:27;;;;;;;;;6.50;4.75;;;;;;;;5074790;28;45361;-65
2022/07/27 03:36:52;;;;;;;;;3.00;3.00;;;;;;;;5074674;28;45413;-65
2022/07/27 03:39:18;;;;;;;;;3.50;3.00;;;;;;;;5074792;28;45306;-65
2022/07/27 03:41:43;;;;;;;;;4.00;4.00;;;;;;;;5074625;28;46866;-65
2022/07/27 03:44:08;;;;;;;;;5.00;5.00;;;;;;;;5056270;28;45740;-65
2022/07/27 03:46:33;;;;;;;;;3.75;3.75;;;;;;;;5074744;28;45450;-65
2022/07/27 03:48:58;;;;;;;;;5.75;4.25;;;;;;;;5074803;28;45429;-65
2022/07/27 03:51:24;;;;;;;;;4.50;3.25;;;;;;;;5074353;28;46502;-65
2022/07/27 03:53:49;;;;;;;;;3.75;3.75;;;;;;;;5074508;28;45402;-65
2022/07/27 03:56:14;;;;;;;;;3.75;3.75;;;;;;;;5074611;28;45390;-65
2022/07/27 03:58:39;;;;;;;;;5.00;3.50;;;;;;;;5074241;28;45364;-65
2022/07/27 04:01:04;;;;;;;;;4.00;3.75;;;;;;;;5074311;28;45913;-65
2022/07/27 04:03:30;;;;;;;;;4.25;3.00;;;;;;;;5074357;28;45417;-64
2022/07/27 04:05:55;;;;;;;;;5.75;3.00;;;;;;;;5074305;28;45433;-64
2022/07/27 04:08:20;;;;;;;;;5.00;4.00;;;;;;;;5055996;28;45432;-64
2022/07/27 04:10:46;;;;;;;;;3.75;3.75;;;;;;;;5074154;28;46321;-65
2022/07/27 04:13:12;;;;;;;;;3.50;2.25;;;;;;;;5055942;28;46229;-65
2022/07/27 04:15:37;;;;;;;;;4.00;2.25;;;;;;;;5074027;28;45940;-65
2022/07/27 04:18:02;;;;;;;;;2.25;2.25;;;;;;;;5074385;28;45373;-65
2022/07/27 04:20:27;;;;;;;;;3.00;2.50;;;;;;;;5055756;28;48685;-65
2022/07/27 04:22:53;;;;;;;;;1.50;1.50;;;;;;;;5055706;28;45695;-66
2022/07/27 04:25:18;;;;;;;;;3.75;2.00;;;;;;;;5074064;27;45426;-65
2022/07/27 04:27:43;;;;;;;;;3.50;3.50;;;;;;;;5074162;28;45409;-66
2022/07/27 04:30:09;;;;;;;;;3.00;2.25;;;;;;;;5073776;28;46880;-65
2022/07/27 04:32:34;;;;;;;;;4.00;2.75;;;;;;;;5073703;28;45390;-66
2022/07/27 04:34:59;;;;;;;;;4.50;2.50;;;;;;;;5055510;27;45436;-66
2022/07/27 04:37:24;;;;;;;;;1.25;1.25;;;;;;;;5073808;28;45345;-66
2022/07/27 04:39:50;;;;;;;;;1.25;1.25;;;;;;;;5073023;28;46606;-64
2022/07/27 04:42:15;;;;;;;;;2.00;2.00;;;;;;;;5073111;28;45379;-64
2022/07/27 04:44:40;;;;;;;;;3.00;3.00;;;;;;;;5076255;28;45342;-64
2022/07/27 04:47:05;;;;;;;;;2.00;2.00;;;;;;;;5058627;28;45349;-65
2022/07/27 04:49:30;;;;;;;;;3.00;1.25;;;;;;;;5076357;28;45579;-65
2022/07/27 04:51:56;;;;;;;;;3.50;2.00;;;;;;;;5076915;28;45485;-66
2022/07/27 04:54:21;;;;;;;;;1.50;0.75;;;;;;;;5076666;28;45776;-64
2022/07/27 04:56:46;;;;;;;;;2.75;1.75;;;;;;;;5076582;28;45299;-66
2022/07/27 04:59:11;;;;;;;;;2.00;2.00;;;;;;;;5076422;28;46470;-65
2022/07/27 05:01:36;;;;;;;;;1.75;1.75;;;;;;;;5077007;28;45341;-65
2022/07/27 05:04:03;;;;;;;;;2.00;2.00;;;;;;;;5077041;28;45359;-66
2022/07/27 05:06:29;;;;;;;;;4.50;3.00;;;;;;;;5076893;28;45373;-66
2022/07/27 05:08:58;;;;;;;;;4.50;2.25;;;;;;;;5074922;28;46368;-66
2022/07/27 05:11:24;;;;;;;;;2.00;2.00;;;;;;;;5074968;28;45554;-66
2022/07/27 05:13:49;;;;;;;;;3.00;2.25;;;;;;;;5076635;28;45376;-66
2022/07/27 05:16:14;;;;;;;;;3.50;2.50;;;;;;;;5076696;28;45433;-68
2022/07/27 05:18:40;;;;;;;;;4.00;3.75;;;;;;;;5075511;28;45390;-67
2022/07/27 05:21:06;;;;;;;;;2.25;2.25;;;;;;;;5076874;28;45506;-68
2022/07/27 05:23:31;;;;;;;;;1.00;0.50;;;;;;;;5075966;28;45399;-68
2022/07/27 05:25:57;;;;;;;;;2.25;2.25;;;;;;;;5058313;28;45392;-68
2022/07/27 05:28:22;;;;;;;;;6.25;2.75;;;;;;;;5094905;27;46464;-66
2022/07/27 05:30:47;;;;;;;;;2.00;2.00;;;;;;;;5078596;27;46118;-65
2022/07/27 05:33:12;;;;;;;;;2.00;2.00;;;;;;;;5097085;27;45407;-65
2022/07/27 05:35:37;;;;;;;;;4.25;4.25;;;;;;;;5078524;27;45325;-64
2022/07/27 05:38:03;;;;;;;;;5.00;1.00;;;;;;;;5096914;27;46129;-65
2022/07/27 05:40:28;;;;;;;;;2.50;1.75;;;;;;;;5096704;27;45317;-64
2022/07/27 05:42:54;;;;;;;;;0.25;0.00;;;;;;;;5096831;27;45453;-65
2022/07/27 05:45:19;;;;;;;;;3.50;2.75;;;;;;;;5096778;27;45501;-64
2022/07/27 05:47:44;;;;;;;;;3.25;3.00;;;;;;;;5096711;27;45635;-65
2022/07/27 05:50:09;;;;;;;;;2.75;2.75;;;;;;;;5096562;27;45421;-67
2022/07/27 05:52:35;;;;;;;;;6.75;3.00;;;;;;;;5096843;27;45351;-64
2022/07/27 05:55:00;;;;;;;;;3.00;3.00;;;;;;;;5095082;27;45748;-65
2022/07/27 05:57:26;;;;;;;;;6.50;1.75;;;;;;;;5078117;27;47398;-65
2022/07/27 05:59:53;;;;;;;;;4.00;3.75;;;;;;;;5096266;27;45357;-65
2022/07/27 06:02:19;;;;;;;;;4.00;4.00;;;;;;;;5078235;27;45460;-66
2022/07/27 06:04:44;;;;;;;;;4.25;4.00;;;;;;;;5096518;27;45415;-65
2022/07/27 06:09:53;;;;;;;;;3.50;3.50;;;;;;;;5096279;27;45425;-65
2022/07/27 06:12:19;;;;;;;;;4.75;3.00;;;;;;;;5096275;27;45366;-64
2022/07/27 06:14:44;;;;;;;;;6.25;2.00;;;;;;;;5096177;27;45571;-65
2022/07/27 06:17:10;;;;;;;;;3.25;3.25;;;;;;;;5096162;27;45684;-64
2022/07/27 06:19:38;;;;;;;;;2.00;1.75;;;;;;;;5096051;27;45524;-65
2022/07/27 06:22:03;;;;;;;;;3.75;3.25;;;;;;;;5096054;27;45312;-65
2022/07/27 06:24:29;;;;;;;;;2.25;2.25;;;;;;;;5096127;27;45463;-64
2022/07/27 06:26:54;;;;;;;;;2.50;2.25;;;;;;;;5082076;27;47706;-65
2022/07/27 06:29:19;;;;;;;;;3.25;3.00;;;;;;;;5075443;28;45323;-64
2022/07/27 06:31:45;;;;;;;;;3.75;3.75;;;;;;;;5075543;27;45502;-64
2022/07/27 06:34:10;;;;;;;;;5.00;2.75;;;;;;;;5056996;28;45393;-64
2022/07/27 06:36:38;;;;;;;;;3.75;2.00;;;;;;;;5057050;28;46185;-65
2022/07/27 06:39:03;;;;;;;;;3.00;3.00;;;;;;;;5074417;28;45424;-65
2022/07/27 06:41:29;;;;;;;;;2.50;1.50;;;;;;;;5074663;28;45435;-66
2022/07/27 06:43:54;;;;;;;;;3.25;3.00;;;;;;;;5057231;28;45438;-65
2022/07/27 06:46:19;;;;;;;;;4.75;2.75;;;;;;;;5056902;28;46572;-65
2022/07/27 06:48:44;;;;;;;;;2.75;1.75;;;;;;;;5075307;28;45365;-65
2022/07/27 06:51:10;;;;;;;;;2.00;1.75;;;;;;;;5075686;28;45348;-65
2022/07/27 06:53:35;;;;;;;;;5.00;3.25;;;;;;;;5075605;28;45373;-65
2022/07/27 06:56:03;;;;;;;;;4.25;4.25;;;;;;;;5074967;28;45826;-66
2022/07/27 06:58:32;;;;;;;;;1.75;1.75;;;;;;;;5075242;28;45344;-64
2022/07/27 07:00:58;;;;;;;;;2.75;2.50;;;;;;;;5057220;28;45742;-65
2022/07/27 07:03:23;;;;;;;;;3.50;3.50;;;;;;;;5056873;28;45472;-65
2022/07/27 07:05:48;;;;;;;;;5.75;3.25;;;;;;;;5074349;28;46737;-65
2022/07/27 07:08:14;;;;;;;;;5.00;4.00;;;;;;;;5074536;27;45500;-65
2022/07/27 07:10:40;;;;;;;;;7.00;4.25;;;;;;;;5075141;28;45463;-65
2022/07/27 07:13:06;;;;;;;;;2.75;2.75;;;;;;;;5056879;28;45380;-65
2022/07/27 07:15:32;;;;;;;;;4.25;4.25;;;;;;;;5074788;28;46008;-64
2022/07/27 07:17:57;;;;;;;;;4.50;3.25;;;;;;;;5075076;28;45540;-65
2022/07/27 07:20:22;;;;;;;;;2.50;2.50;;;;;;;;5075150;28;45738;-65
2022/07/27 07:22:47;;;;;;;;;4.00;3.75;;;;;;;;5074855;28;45375;-66
2022/07/27 07:25:12;;;;;;;;;5.75;3.50;;;;;;;;5074767;28;47623;-65
2022/07/27 07:27:38;;;;;;;;;3.50;3.50;;;;;;;;5052524;28;45781;-65
2022/07/27 07:30:03;;;;;;;;;2.00;2.00;;;;;;;;5054743;28;45372;-65
2022/07/27 07:32:29;;;;;;;;;4.00;4.00;;;;;;;;5054481;28;45464;-65
2022/07/27 07:34:55;;;;;;;;;3.00;3.00;;;;;;;;5054217;28;46379;-64
2022/07/27 07:37:20;;;;;;;;;5.00;5.00;;;;;;;;5054496;28;45642;-64
2022/07/27 07:39:46;;;;;;;;;5.00;3.25;;;;;;;;5054394;28;45343;-65
2022/07/27 07:42:11;;;;;;;;;4.00;3.00;;;;;;;;5054445;28;45410;-65
2022/07/27 07:44:36;;;;;;;;;4.00;3.00;;;;;;;;5054257;28;45385;-65
2022/07/27 07:47:02;;;;;;;;;3.00;3.00;;;;;;;;5054259;28;45414;-65
2022/07/27 07:49:27;;;;;;;;;4.00;4.00;;;;;;;;5054362;28;45429;-65
2022/07/27 07:51:52;;;;;;;;;4.25;3.75;;;;;;;;5054283;28;45307;-64
2022/07/27 07:54:17;;;;;;;;;3.50;3.50;;;;;;;;5054270;28;46403;-65
2022/07/27 07:56:43;;;;;;;;;5.75;5.00;;;;;;;;5053929;28;45380;-65
2022/07/27 07:59:08;;;;;;;;;5.50;2.25;;;;;;;;5054148;28;45416;-64
2022/07/27 08:01:33;;;;;;;;;3.25;3.25;;;;;;;;5054203;28;45462;-65
2022/07/27 08:03:58;;;;;;;;;5.25;5.00;;;;;;;;5054044;28;46126;-66
2022/07/27 08:06:24;;;;;;;;;4.75;4.75;;;;;;;;5054245;28;45445;-65
2022/07/27 08:08:49;;;;;;;;;6.75;5.00;;;;;;;;5054096;28;45381;-66
2022/07/27 08:11:14;;;;;;;;;5.75;5.25;;;;;;;;5054231;28;45466;-65
2022/07/27 08:13:39;;;;;;;;;4.50;4.25;;;;;;;;5053750;28;45740;-65
2022/07/27 08:16:05;;;;;;;;;4.00;3.75;;;;;;;;5053829;28;45381;-65
2022/07/27 08:18:30;;;;;;;;;7.25;5.25;;;;;;;;5055179;28;45342;-65
2022/07/27 08:20:55;;;;;;;;;6.75;6.00;;;;;;;;5057516;28;45369;-66
2022/07/27 08:23:20;;;;;;;;;5.25;5.25;;;;;;;;5055892;28;47581;-65
2022/07/27 08:25:46;;;;;;;;;6.25;3.75;;;;;;;;5060315;27;45599;-66
2022/07/27 08:28:11;;;;;;;;;5.50;5.50;;;;;;;;5077787;28;45496;-65
2022/07/27 08:30:36;;;;;;;;;4.75;4.00;;;;;;;;5077821;28;45445;-66
2022/07/27 08:33:03;;;;;;;;;6.25;6.00;;;;;;;;5077670;28;46120;-63
2022/07/27 08:35:29;;;;;;;;;9.75;4.50;;;;;;;;5059323;28;45380;-66
2022/07/27 08:37:54;;;;;;;;;9.00;4.25;;;;;;;;5077635;28;45432;-67
2022/07/27 08:40:20;;;;;;;;;6.25;5.00;;;;;;;;5077309;28;45532;-65
2022/07/27 08:42:45;;;;;;;;;8.50;8.50;;;;;;;;5077423;28;45578;-65
2022/07/27 08:45:12;;;;;;;;;6.50;6.50;;;;;;;;5077051;28;45410;-65
2022/07/27 08:47:39;;;;;;;;;6.00;6.00;;;;;;;;5077494;28;45371;-65
2022/07/27 08:50:21;;;;;;;;;10.25;5.00;;;;;;;;5077279;28;45414;-65
2022/07/27 08:52:47;;;;;;;;;5.50;5.50;;;;;;;;5077244;28;46349;-64
2022/07/27 08:55:12;;;;;;;;;9.00;5.50;;;;;;;;5076938;28;45337;-65
2022/07/27 08:57:37;;;;;;;;;5.75;4.25;;;;;;;;5059199;28;45478;-65
2022/07/27 09:00:05;;;;;;;;;5.25;5.00;;;;;;;;5058868;28;45376;-66
2022/07/27 09:02:30;;;;;;;;;5.75;5.00;;;;;;;;5077262;28;46937;-64
2022/07/27 09:04:56;;;;;;;;;5.00;5.00;;;;;;;;5077143;28;45431;-65
2022/07/27 09:07:31;;;;;;;;;6.50;5.00;;;;;;;;5077317;28;45417;-65
2022/07/27 09:09:56;;;;;;;;;2.75;2.75;;;;;;;;5077232;28;45481;-66
2022/07/27 09:12:25;;;;;;;;;5.50;4.00;;;;;;;;5077097;28;46347;-65
2022/07/27 09:15:01;;;;;;;;;5.00;5.00;;;;;;;;5076908;28;45366;-65
2022/07/27 09:17:26;;;;;;;;;6.00;6.00;;;;;;;;5076658;28;45344;-65
2022/07/27 09:19:56;;;;;;;;;4.75;3.75;;;;;;;;5076728;28;45464;-66
2022/07/27 09:22:37;;;;;;;;;6.25;5.25;;;;;;;;5076646;28;46058;-65
2022/07/27 09:25:03;;;;;;;;;3.50;3.50;;;;;;;;5076716;28;45324;-65
2022/07/27 09:27:31;;;;;;;;;2.00;1.00;;;;;;;;5058454;28;45392;-65
2022/07/27 09:30:16;;;;;;;;;5.00;5.00;;;;;;;;5076514;28;45428;-65
2022/07/27 09:32:55;;;;;;;;;7.00;3.00;;;;;;;;5076406;28;45714;-65
2022/07/27 09:35:23;;;;;;;;;3.00;3.00;;;;;;;;5076493;28;45470;-65
2022/07/27 09:37:48;;;;;;;;;4.00;3.00;;;;;;;;5076631;28;45335;-65
2022/07/27 09:40:23;;;;;;;;;4.25;4.25;;;;;;;;5058083;28;45481;-65
2022/07/27 09:43:08;;;;;;;;;2.50;2.50;;;;;;;;5076331;28;45637;-64
2022/07/27 09:45:34;;;;;;;;;3.00;3.00;;;;;;;;5076349;28;45447;-65
2022/07/27 09:48:07;;;;;;;;;2.50;2.50;;;;;;;;5058104;28;45493;-65
2022/07/27 09:50:32;;;;;;;;;4.00;3.00;;;;;;;;5076433;28;45493;-65
2022/07/27 09:53:12;;;;;;;;;2.75;2.75;;;;;;;;5076044;28;45699;-66
2022/07/27 09:55:38;;;;;;;;;3.00;2.00;;;;;;;;5076083;28;45392;-64
2022/07/27 09:58:03;;;;;;;;;2.00;2.00;;;;;;;;5076365;28;45337;-65
2022/07/27 10:00:29;;;;;;;;;4.75;2.50;;;;;;;;5076489;28;45416;-66
2022/07/27 10:02:54;;;;;;;;;3.25;2.75;;;;;;;;5076186;28;46495;-65
2022/07/27 10:05:22;;;;;;;;;3.00;3.00;;;;;;;;5076227;28;45411;-67
2022/07/27 10:07:48;;;;;;;;;4.75;3.00;;;;;;;;5057993;28;45417;-66
2022/07/27 10:10:14;;;;;;;;;2.00;1.50;;;;;;;;5076310;28;45400;-66
2022/07/27 10:12:41;;;;;;;;;1.00;1.00;;;;;;;;5057741;28;47518;-67
2022/07/27 10:15:07;;;;;;;;;2.00;2.00;;;;;;;;5076046;28;45482;-68
2022/07/27 10:17:33;;;;;;;;;3.00;3.00;;;;;;;;5075744;28;45403;-65
2022/07/27 10:19:58;;;;;;;;;3.75;2.25;;;;;;;;5057623;28;45379;-65
2022/07/27 10:22:42;;;;;;;;;1.50;1.50;;;;;;;;5075631;28;46633;-65
2022/07/27 10:25:07;;;;;;;;;1.00;1.00;;;;;;;;5075830;28;45387;-65
2022/07/27 10:27:32;;;;;;;;;2.00;2.00;;;;;;;;5057443;28;45463;-66
2022/07/27 10:29:58;;;;;;;;;2.75;2.50;;;;;;;;5057592;28;45382;-66
2022/07/27 10:32:24;;;;;;;;;3.25;2.00;;;;;;;;5075698;28;45881;-66
2022/07/27 10:34:49;;;;;;;;;2.25;2.25;;;;;;;;5057148;28;45382;-66
2022/07/27 10:37:41;;;;;;;;;1.50;1.00;;;;;;;;5075526;28;45400;-66
2022/07/27 10:43:04;;;;;;;;;1.75;1.25;;;;;;;;5075019;28;45731;-66
2022/07/27 10:45:37;;;;;;;;;1.00;0.75;;;;;;;;5075402;28;45400;-65
2022/07/27 10:48:02;;;;;;;;;1.75;1.00;;;;;;;;5075641;28;45271;-65
2022/07/27 10:50:28;;;;;;;;;2.75;2.00;;;;;;;;5057266;28;45407;-66
2022/07/27 10:53:06;;;;;;;;;2.00;0.50;;;;;;;;5075315;28;46284;-65
2022/07/27 10:55:33;;;;;;;;;2.00;2.00;;;;;;;;5075215;28;45632;-66
2022/07/27 10:58:17;;;;;;;;;1.25;1.25;;;;;;;;5075474;28;45477;-66
2022/07/27 11:00:48;;;;;;;;;1.00;1.00;;;;;;;;5075220;28;45483;-66
2022/07/27 11:03:20;;;;;;;;;0.00;0.00;;;;;;;;5075202;28;46881;-66
2022/07/27 11:05:57;;;;;;;;;1.25;1.25;;;;;;;;5075438;28;45580;-67
2022/07/27 11:08:26;;;;;;;;;1.00;0.75;;;;;;;;5075131;28;45368;-66
2022/07/27 11:10:52;;;;;;;;;1.00;1.00;;;;;;;;5075107;28;45344;-66
2022/07/27 11:13:20;;;;;;;;;1.25;1.25;;;;;;;;5056541;28;46226;-66
2022/07/27 11:15:52;;;;;;;;;2.00;2.00;;;;;;;;5074936;28;45317;-66
2022/07/27 11:18:17;;;;;;;;;1.00;1.00;;;;;;;;5074979;28;45428;-66
2022/07/27 11:20:42;;;;;;;;;2.00;2.00;;;;;;;;5074818;28;45357;-66
2022/07/27 11:23:20;;;;;;;;;1.50;1.50;;;;;;;;5075011;28;45793;-65
2022/07/27 11:25:59;;;;;;;;;1.25;1.25;;;;;;;;5057673;28;45508;-66
2022/07/27 11:28:28;;;;;;;;;2.00;1.00;;;;;;;;5075023;28;45329;-65
2022/07/27 11:30:54;;;;;;;;;1.00;1.00;;;;;;;;5074839;28;45432;-65
2022/07/27 11:33:20;;;;;;;;;1.00;1.00;;;;;;;;5074474;28;46103;-65
2022/07/27 11:35:55;;;;;;;;;0.75;0.75;;;;;;;;5074624;28;45393;-64
2022/07/27 11:38:20;;;;;;;;;2.00;2.00;;;;;;;;5074967;28;45409;-66
2022/07/27 11:40:47;;;;;;;;;1.00;1.00;;;;;;;;5074697;28;45373;-65
2022/07/27 11:43:29;;;;;;;;;1.00;1.00;;;;;;;;5074541;28;46028;-66
2022/07/27 11:45:54;;;;;;;;;1.00;1.00;;;;;;;;5074636;28;45404;-66
2022/07/27 11:48:19;;;;;;;;;1.00;1.00;;;;;;;;5056580;28;45791;-65
2022/07/27 11:50:57;;;;;;;;;3.00;1.00;;;;;;;;5056720;28;45706;-66
2022/07/27 11:53:22;;;;;;;;;1.50;1.50;;;;;;;;5076971;28;46443;-66
2022/07/27 11:55:48;;;;;;;;;1.00;1.00;;;;;;;;5077990;28;45493;-65
2022/07/27 11:58:17;;;;;;;;;1.00;1.00;;;;;;;;5078569;28;45723;-66
2022/07/27 12:00:43;;;;;;;;;3.25;3.25;;;;;;;;5078294;28;45382;-65
2022/07/27 12:03:17;;;;;;;;;0.75;0.75;;;;;;;;5078016;28;45873;-65
2022/07/27 12:05:47;;;;;;;;;1.75;1.75;;;;;;;;5077844;28;45446;-66
2022/07/27 12:08:13;;;;;;;;;2.00;1.75;;;;;;;;5078070;28;45469;-66
2022/07/27 12:10:38;;;;;;;;;2.25;1.00;;;;;;;;5077935;28;45369;-65
2022/07/27 12:13:03;;;;;;;;;1.00;1.00;;;;;;;;5077800;28;46616;-65
2022/07/27 12:15:28;;;;;;;;;1.00;0.75;;;;;;;;5077909;28;45444;-66
2022/07/27 12:17:56;;;;;;;;;1.25;1.25;;;;;;;;5078061;28;45532;-64
2022/07/27 12:20:30;;;;;;;;;2.50;1.00;;;;;;;;5076626;28;45355;-65
2022/07/27 12:22:55;;;;;;;;;3.00;0.75;;;;;;;;5077462;28;45801;-66
2022/07/27 12:25:20;;;;;;;;;3.00;2.00;;;;;;;;5077475;28;45321;-65
2022/07/27 12:27:58;;;;;;;;;1.00;1.00;;;;;;;;5059705;28;45435;-65
2022/07/27 12:30:35;;;;;;;;;1.00;1.00;;;;;;;;5077690;28;45500;-66
2022/07/27 12:33:02;;;;;;;;;1.00;1.00;;;;;;;;5077330;28;45422;-67
2022/07/27 12:35:28;;;;;;;;;1.00;1.00;;;;;;;;5059087;28;45461;-66
2022/07/27 12:37:57;;;;;;;;;1.00;1.00;;;;;;;;5077788;28;45413;-65
2022/07/27 12:40:23;;;;;;;;;3.00;2.00;;;;;;;;5077336;28;45336;-64
2022/07/27 12:42:54;;;;;;;;;1.00;1.00;;;;;;;;5077375;28;45368;-64
2022/07/27 12:45:20;;;;;;;;;0.00;0.00;;;;;;;;5077436;28;45600;-65
2022/07/27 12:47:46;;;;;;;;;0.25;0.25;;;;;;;;5077450;28;45385;-65
2022/07/27 12:50:13;;;;;;;;;1.00;1.00;;;;;;;;5042304;28;45298;-64
2022/07/27 12:52:43;;;;;;;;;0.25;0.25;;;;;;;;5077429;28;46509;-66
2022/07/27 12:55:09;;;;;;;;;1.00;1.00;;;;;;;;5097539;27;45494;-65
2022/07/27 12:57:34;;;;;;;;;0.00;0.00;;;;;;;;5079196;27;45358;-65
2022/07/27 13:00:00;;;;;;;;;2.00;1.00;;;;;;;;5079452;27;45492;-66
2022/07/27 13:02:25;;;;;;;;;1.75;1.00;;;;;;;;5097639;27;46288;-66
2022/07/27 13:04:50;;;;;;;;;1.75;1.00;;;;;;;;5097005;27;45343;-66
2022/07/27 13:07:17;;;;;;;;;0.25;0.25;;;;;;;;5097662;27;45415;-66
2022/07/27 13:09:43;;;;;;;;;1.00;1.00;;;;;;;;5097473;27;45416;-67
2022/07/27 13:12:08;;;;;;;;;1.00;1.00;;;;;;;;5097212;27;46496;-65
2022/07/27 13:14:33;;;;;;;;;2.00;1.00;;;;;;;;5097432;27;45404;-65
2022/07/27 13:16:58;;;;;;;;;0.25;0.25;;;;;;;;5078758;27;45326;-66
2022/07/27 13:19:24;;;;;;;;;1.00;1.00;;;;;;;;5097484;27;45372;-67
2022/07/27 13:21:49;;;;;;;;;0.00;0.00;;;;;;;;5097265;27;45631;-66
2022/07/27 13:24:14;;;;;;;;;0.00;0.00;;;;;;;;5078716;27;45435;-66
2022/07/27 13:26:40;;;;;;;;;0.00;0.00;;;;;;;;5079118;27;45588;-65
2022/07/27 13:29:05;;;;;;;;;0.50;0.50;;;;;;;;5078701;27;45364;-65
2022/07/27 13:31:30;;;;;;;;;2.00;0.75;;;;;;;;5078846;27;47420;-65
2022/07/27 13:33:55;;;;;;;;;1.00;1.00;;;;;;;;5078768;27;45405;-67
2022/07/27 13:36:21;;;;;;;;;0.00;0.00;;;;;;;;5097388;27;45507;-65
2022/07/27 13:38:46;;;;;;;;;0.75;0.75;;;;;;;;5097160;27;45439;-66
2022/07/27 13:41:11;;;;;;;;;1.00;1.00;;;;;;;;5096925;27;46258;-65
2022/07/27 13:43:36;;;;;;;;;1.50;1.00;;;;;;;;5078564;27;45390;-69
2022/07/27 13:46:02;;;;;;;;;0.00;0.00;;;;;;;;5097139;27;45412;-65
2022/07/27 13:48:27;;;;;;;;;1.00;0.00;;;;;;;;5096998;27;45483;-64
2022/07/27 13:50:52;;;;;;;;;0.00;0.00;;;;;;;;5096630;27;47420;-66
2022/07/27 13:53:18;;;;;;;;;0.00;0.00;;;;;;;;5096806;27;45328;-65
2022/07/27 13:55:43;;;;;;;;;0.00;0.00;;;;;;;;5096787;27;45666;-66
2022/07/27 13:58:10;;;;;;;;;1.00;1.00;;;;;;;;5078453;27;45534;-65
2022/07/27 14:00:35;;;;;;;;;0.00;0.00;;;;;;;;5078256;27;46368;-65
2022/07/27 14:03:00;;;;;;;;;0.25;0.25;;;;;;;;5096476;27;45508;-64
2022/07/27 14:05:26;;;;;;;;;1.00;0.25;;;;;;;;5096733;27;45501;-65
2022/07/27 14:07:51;;;;;;;;;0.00;0.00;;;;;;;;5096677;27;45309;-64
2022/07/27 14:10:31;;;;;;;;;0.00;0.00;;;;;;;;5096385;27;45470;-64
2022/07/27 14:13:00;;;;;;;;;0.00;0.00;;;;;;;;5078251;27;45547;-66
2022/07/27 14:15:26;;;;;;;;;0.50;0.00;;;;;;;;5095680;27;45411;-63
2022/07/27 14:17:51;;;;;;;;;0.00;0.00;;;;;;;;5096061;27;45304;-65
2022/07/27 14:20:17;;;;;;;;;0.75;0.75;;;;;;;;5096358;27;45712;-65
2022/07/27 14:22:42;;;;;;;;;0.00;0.00;;;;;;;;5096084;27;45309;-65
2022/07/27 14:25:07;;;;;;;;;0.00;0.00;;;;;;;;5096386;27;45411;-64
2022/07/27 14:27:32;;;;;;;;;2.00;1.00;;;;;;;;5096225;27;45411;-65
2022/07/27 14:29:58;;;;;;;;;0.00;0.00;;;;;;;;5096068;27;46325;-65
2022/07/27 14:32:23;;;;;;;;;0.00;0.00;;;;;;;;5077926;27;45884;-66
2022/07/27 14:34:48;;;;;;;;;0.00;0.00;;;;;;;;5077888;27;45352;-66
2022/07/27 14:37:20;;;;;;;;;2.00;1.00;;;;;;;;5065401;28;45356;-65
2022/07/27 14:39:45;;;;;;;;;0.00;0.00;;;;;;;;5068048;28;45379;-65
2022/07/27 14:42:11;;;;;;;;;0.00;0.00;;;;;;;;5068342;27;45471;-65
2022/07/27 14:44:36;;;;;;;;;0.00;0.00;;;;;;;;5068149;28;45465;-65
2022/07/27 14:47:01;;;;;;;;;0.25;0.00;;;;;;;;5067866;28;46477;-66